createdAt,value
2019-05-09T00:00:49.013Z,8.40
2019-05-09T00:15:50.427Z,8.34
2019-05-09T00:30:58.771Z,8.31
2019-05-09T01:00:49.344Z,8.05
2019-05-09T01:15:48.706Z,7.94
2019-05-09T01:30:49.957Z,7.85
2019-05-09T01:45:50.874Z,7.85
2019-05-09T02:00:49.479Z,7.78
2019-05-09T02:15:59.325Z,7.79
2019-05-09T02:30:50.029Z,7.86
2019-05-09T02:45:59.408Z,7.91
2019-05-09T03:00:59.411Z,8.03
2019-05-09T03:15:51.573Z,8.08
2019-05-09T03:30:59.460Z,8.50
2019-05-09T03:45:50.311Z,13.99
2019-05-09T04:00:49.195Z,12.11
2019-05-09T04:15:50.168Z,10.61
2019-05-09T04:30:49.997Z,10.26
2019-05-09T04:45:53.323Z,11.94
2019-05-09T05:15:48.312Z,15.67
2019-05-09T05:30:55.171Z,17.16
2019-05-09T05:45:55.753Z,17.79
2019-05-09T06:00:50.964Z,18.93
2019-05-09T06:15:51.424Z,18.32
2019-05-09T06:30:51.272Z,17.60
2019-05-09T06:45:57.485Z,17.83
2019-05-09T07:00:58.291Z,18.30
2019-05-09T07:15:52.910Z,18.62
2019-05-09T08:00:52.501Z,16.98
2019-05-09T08:15:51.040Z,16.72
2019-05-09T08:30:58.472Z,17.04
2019-05-09T08:45:52.247Z,17.32
2019-05-09T09:00:52.184Z,17.71
2019-05-09T09:16:08.221Z,17.05
2019-05-09T09:30:49.096Z,16.64
2019-05-09T10:30:50.826Z,16.62
2019-05-09T10:45:57.881Z,16.96
2019-05-09T11:00:49.758Z,17.36
2019-05-09T11:15:49.590Z,17.50
2019-05-09T11:30:49.501Z,17.09
2019-05-09T11:45:50.956Z,17.12
2019-05-09T12:45:51.445Z,16.67
2019-05-09T13:00:51.922Z,16.43
2019-05-09T13:15:51.105Z,16.61
2019-05-09T13:30:49.898Z,15.90
2019-05-09T13:45:49.761Z,16.27
2019-05-09T14:00:58.951Z,16.08
2019-05-09T14:15:50.091Z,16.29
2019-05-09T14:30:49.347Z,16.30
2019-05-09T14:45:50.350Z,16.24
2019-05-09T15:00:49.459Z,16.04
2019-05-09T15:15:51.222Z,15.20
2019-05-09T15:30:59.348Z,14.21
2019-05-09T16:30:51.389Z,13.37
2019-05-09T16:45:54.997Z,13.25
2019-05-09T17:15:50.249Z,13.09
2019-05-09T17:26:13.427Z,13.03
2019-05-09T17:45:49.523Z,12.64
2019-05-09T18:00:52.842Z,12.39
2019-05-09T18:15:55.242Z,12.04
2019-05-09T18:30:53.613Z,12.01
2019-05-09T18:45:49.311Z,12.07
2019-05-09T19:00:59.025Z,12.04
2019-05-09T19:30:58.782Z,11.87
2019-05-09T19:45:49.787Z,11.98
2019-05-09T20:00:49.331Z,11.96
2019-05-09T20:15:50.129Z,11.82
2019-05-09T20:30:55.983Z,11.90
2019-05-09T20:45:51.622Z,11.95
2019-05-09T21:00:50.123Z,11.82
2019-05-09T21:15:53.611Z,11.55
2019-05-09T21:30:50.321Z,11.37
2019-05-09T21:45:51.464Z,11.09
2019-05-09T22:00:52.663Z,11.18
2019-05-09T22:15:49.238Z,11.41
2019-05-09T22:30:56.085Z,11.31
2019-05-09T22:45:50.580Z,11.15
2019-05-09T23:00:55.148Z,10.69
2019-05-09T23:15:48.897Z,10.52
2019-05-09T23:30:51.561Z,10.69
2019-05-09T23:45:49.838Z,10.73
